EDDK/CGN METAR and TAF weather

Enter ICAO airport designator
Station Type Date Time Source
EDDK METAR 2019/04/24 21:50 UTC NOAA

EDDK 242150Z 13011KT CAVOK 09/07 Q1007 NOSIG


Station Type Date Time Source
EDDK Decoded METAR 2019/04/24 21:50 UTC NOAA

Koeln / Bonn, Germany (EDDK) 50-52N 007-10E 100M
Apr 24, 2019 - 05:50 PM EDT / 2019.04.24 2150 UTC
Wind: from the SE (130 degrees) at 13 MPH (11 KT):0
Visibility: greater than 7 mile(s):0
Temperature: 48 F (9 C)
Dew Point: 44 F (7 C)
Relative Humidity: 87%
Pressure (altimeter): 29.74 in. Hg (1007 hPa)
ob: EDDK 242150Z 13011KT CAVOK 09/07 Q1007 NOSIG
cycle: 22

Station Type Date Time Source
EDDK TAF 2019/04/24 18:27 UTC NOAA

TAF EDDK 241700Z 2418/2524 18011KT CAVOK PROB30
TEMPO 2418/2420 19020G45KT TSRA BKN020CB PROB40
TEMPO 2420/2423 RA
BECMG 2421/2424 12007KT
BECMG 2506/2509 15014KT
TEMPO 2510/2516 16015G25KT
BECMG 2515/2518 24004KT

Example: see airport list